createdAt,value
2023-03-05T00:01:19.542Z,3.97
2023-03-05T00:03:47.550Z,4.01
2023-03-05T00:06:17.001Z,4.04
2023-03-05T00:08:44.623Z,4.04
2023-03-05T00:11:14.083Z,4.00
2023-03-05T00:13:41.995Z,4.00
2023-03-05T00:16:12.010Z,3.99
2023-03-05T00:18:40.139Z,4.03
2023-03-05T00:21:19.079Z,4.05
2023-03-05T00:23:46.655Z,4.05
2023-03-05T00:26:15.506Z,4.06
2023-03-05T00:28:43.801Z,4.02
2023-03-05T00:31:11.432Z,3.99
2023-03-05T00:33:39.281Z,4.02
2023-03-05T00:36:07.991Z,4.03
2023-03-05T00:38:35.706Z,4.03
2023-03-05T00:41:04.144Z,4.05
2023-03-05T00:43:33.048Z,4.06
2023-03-05T00:46:01.164Z,4.00
2023-03-05T00:48:28.794Z,3.99
2023-03-05T00:50:56.391Z,3.99
2023-03-05T00:53:24.183Z,4.03
2023-03-05T00:55:52.045Z,4.08
2023-03-05T00:58:20.731Z,4.03
2023-03-05T01:00:50.496Z,4.07
2023-03-05T01:03:18.609Z,4.07
2023-03-05T01:05:46.315Z,4.08
2023-03-05T01:08:13.863Z,4.08
2023-03-05T01:10:41.436Z,4.12
2023-03-05T01:13:09.298Z,4.07
2023-03-05T01:15:36.863Z,4.08
2023-03-05T01:18:06.339Z,4.01
2023-03-05T01:20:34.268Z,4.04
2023-03-05T01:23:02.034Z,4.03
2023-03-05T01:25:29.785Z,4.06
2023-03-05T01:27:57.503Z,4.07
2023-03-05T01:30:25.535Z,4.06
2023-03-05T01:32:53.084Z,4.09
2023-03-05T01:35:24.828Z,4.10
2023-03-05T01:37:52.721Z,4.09
2023-03-05T01:40:25.988Z,4.08
2023-03-05T01:42:57.410Z,4.09
2023-03-05T01:45:25.359Z,4.09
2023-03-05T01:47:52.999Z,4.06
2023-03-05T01:50:25.499Z,4.08
2023-03-05T01:52:58.455Z,4.05
2023-03-05T01:55:28.732Z,4.04
2023-03-05T01:58:00.542Z,4.04
2023-03-05T02:00:31.790Z,4.01
2023-03-05T02:03:03.524Z,4.04
2023-03-05T02:05:34.140Z,4.03
2023-03-05T02:08:04.505Z,4.05
2023-03-05T02:10:35.010Z,4.05
2023-03-05T02:13:05.928Z,4.03
2023-03-05T02:15:37.234Z,4.05
2023-03-05T02:18:05.914Z,4.06
2023-03-05T02:20:46.746Z,4.08
2023-03-05T02:23:16.533Z,4.06
2023-03-05T02:25:44.890Z,4.10
2023-03-05T02:28:18.494Z,4.11
2023-03-05T02:30:46.373Z,4.10
2023-03-05T02:33:14.926Z,4.07
2023-03-05T02:35:43.591Z,4.09
2023-03-05T02:38:11.871Z,4.12
2023-03-05T02:40:40.986Z,4.13
2023-03-05T02:43:09.044Z,4.11
2023-03-05T02:45:37.192Z,4.11
2023-03-05T02:48:05.512Z,4.14
2023-03-05T02:50:34.189Z,4.13
2023-03-05T02:53:01.864Z,4.11
2023-03-05T02:55:30.491Z,4.10
2023-03-05T02:57:59.481Z,4.12
2023-03-05T03:00:28.856Z,4.11
2023-03-05T03:02:56.796Z,4.15
2023-03-05T03:05:24.516Z,4.12
2023-03-05T03:07:52.247Z,4.10
2023-03-05T03:10:20.166Z,4.10
2023-03-05T03:12:47.911Z,4.09
2023-03-05T03:15:18.594Z,4.13
2023-03-05T03:17:46.957Z,4.11
2023-03-05T03:20:18.048Z,4.14
2023-03-05T03:22:47.227Z,4.12
2023-03-05T03:25:15.962Z,4.06
2023-03-05T03:27:43.677Z,4.05
2023-03-05T03:30:12.905Z,4.01
2023-03-05T03:32:41.935Z,4.01
2023-03-05T03:35:11.368Z,4.00
2023-03-05T03:37:39.445Z,3.98
2023-03-05T03:40:08.914Z,3.96
2023-03-05T03:42:37.026Z,3.97
2023-03-05T03:45:05.494Z,4.04
2023-03-05T03:47:33.334Z,4.03
2023-03-05T03:50:02.499Z,4.00
2023-03-05T03:52:30.205Z,3.96
2023-03-05T03:55:01.655Z,3.98
2023-03-05T03:57:30.546Z,4.01
2023-03-05T03:59:58.210Z,4.00
2023-03-05T04:02:27.208Z,4.00
2023-03-05T04:04:54.901Z,3.99
2023-03-05T04:07:23.913Z,4.00
2023-03-05T04:09:51.827Z,4.00
2023-03-05T04:12:19.522Z,3.99
2023-03-05T04:14:47.862Z,3.98
2023-03-05T04:17:16.568Z,3.97
2023-03-05T04:19:44.554Z,3.87
2023-03-05T04:22:12.948Z,3.87
2023-03-05T04:24:42.510Z,3.86
2023-03-05T04:27:10.419Z,3.86
2023-03-05T04:29:38.432Z,3.88
2023-03-05T04:32:06.796Z,3.87
2023-03-05T04:34:35.271Z,3.86
2023-03-05T04:37:03.117Z,3.86
2023-03-05T04:39:30.895Z,3.87
2023-03-05T04:41:59.882Z,3.86
2023-03-05T04:44:27.523Z,3.85
2023-03-05T04:46:55.122Z,3.88
2023-03-05T04:49:22.735Z,3.85
2023-03-05T04:51:50.503Z,3.87
2023-03-05T04:54:18.110Z,3.84
2023-03-05T04:56:45.743Z,3.86
2023-03-05T04:59:14.692Z,3.90
2023-03-05T05:01:43.136Z,3.87
2023-03-05T05:04:10.814Z,3.85
2023-03-05T05:06:38.466Z,3.89
2023-03-05T05:09:06.241Z,3.87
2023-03-05T05:11:33.856Z,3.90
2023-03-05T05:14:01.648Z,3.87
2023-03-05T05:16:30.934Z,3.84
2023-03-05T05:18:58.656Z,3.82
2023-03-05T05:21:26.285Z,3.80
2023-03-05T05:23:53.944Z,3.80
2023-03-05T05:26:21.624Z,3.80
2023-03-05T05:28:49.269Z,3.83
2023-03-05T05:31:17.816Z,3.83
2023-03-05T05:33:49.672Z,3.81
2023-03-05T05:36:20.061Z,3.83
2023-03-05T05:38:47.670Z,3.82
2023-03-05T05:41:18.082Z,3.84
2023-03-05T05:43:45.763Z,3.82
2023-03-05T05:46:15.719Z,3.80
2023-03-05T05:48:44.421Z,3.80
2023-03-05T05:51:16.014Z,3.84
2023-03-05T05:53:44.059Z,3.81
2023-03-05T05:56:13.207Z,3.79
2023-03-05T05:58:42.249Z,3.79
2023-03-05T06:01:15.017Z,3.75
2023-03-05T06:03:42.685Z,3.75
2023-03-05T06:06:13.905Z,3.72
2023-03-05T06:08:41.886Z,3.69
2023-03-05T06:11:10.150Z,3.69
2023-03-05T06:13:38.124Z,3.69
2023-03-05T06:16:08.028Z,3.73
2023-03-05T06:18:36.684Z,3.86
2023-03-05T06:21:06.677Z,3.90
2023-03-05T06:23:36.115Z,4.03
2023-03-05T06:26:06.442Z,3.96
2023-03-05T06:28:34.578Z,3.92
2023-03-05T06:31:02.953Z,3.95
2023-03-05T06:33:31.340Z,3.95
2023-03-05T06:35:59.245Z,4.01
2023-03-05T06:38:27.070Z,4.07
2023-03-05T06:40:56.075Z,4.17
2023-03-05T06:43:23.642Z,4.17
2023-03-05T06:46:01.880Z,4.21
2023-03-05T06:48:29.494Z,4.22
2023-03-05T06:50:57.023Z,4.18
2023-03-05T06:53:24.853Z,4.15
2023-03-05T06:55:52.512Z,4.10
2023-03-05T06:58:22.515Z,4.12
2023-03-05T07:00:50.408Z,4.08
2023-03-05T07:03:18.093Z,4.11
2023-03-05T07:05:45.728Z,4.11
2023-03-05T07:08:13.329Z,4.11
2023-03-05T07:10:41.652Z,4.18
2023-03-05T07:13:09.667Z,4.22
2023-03-05T07:15:41.134Z,4.23
2023-03-05T07:18:09.212Z,4.20
2023-03-05T07:20:37.193Z,4.28
2023-03-05T07:23:05.546Z,4.35
2023-03-05T07:25:34.120Z,4.39
2023-03-05T07:28:01.853Z,4.48
2023-03-05T07:30:29.566Z,4.53
2023-03-05T07:32:58.470Z,4.59
2023-03-05T07:35:26.208Z,4.59
2023-03-05T07:37:54.886Z,4.95
2023-03-05T07:40:22.871Z,4.90
2023-03-05T07:42:50.403Z,4.94
2023-03-05T07:45:28.365Z,5.05
2023-03-05T07:47:56.918Z,5.05
2023-03-05T07:50:25.971Z,5.06
2023-03-05T07:52:53.691Z,5.15
2023-03-05T07:55:21.282Z,5.22
2023-03-05T07:57:48.833Z,5.30
2023-03-05T08:00:17.153Z,5.33
2023-03-05T08:02:44.798Z,5.30
2023-03-05T08:05:12.554Z,5.30
2023-03-05T08:07:41.444Z,5.34
2023-03-05T08:10:10.555Z,5.37
2023-03-05T08:12:38.106Z,5.40
2023-03-05T08:15:06.783Z,5.45
2023-03-05T08:17:34.313Z,5.52
2023-03-05T08:20:05.374Z,5.57
2023-03-05T08:22:34.726Z,5.67
2023-03-05T08:25:04.754Z,5.69
2023-03-05T08:27:32.445Z,5.69
2023-03-05T08:30:01.844Z,5.67
2023-03-05T08:32:29.627Z,5.63
2023-03-05T08:34:58.292Z,5.58
2023-03-05T08:37:25.920Z,5.56
2023-03-05T08:39:53.491Z,5.55
2023-03-05T08:42:22.453Z,5.61
2023-03-05T08:44:50.054Z,5.54
2023-03-05T08:47:18.187Z,5.49
2023-03-05T08:49:45.847Z,5.57
2023-03-05T08:52:13.761Z,5.64
2023-03-05T08:54:41.369Z,5.58
2023-03-05T08:57:09.000Z,5.58
2023-03-05T08:59:37.957Z,5.74
2023-03-05T09:02:05.730Z,5.81
2023-03-05T09:04:33.457Z,5.88
2023-03-05T09:07:00.990Z,5.89
2023-03-05T09:09:29.902Z,5.97
2023-03-05T09:11:59.034Z,5.74
2023-03-05T09:14:28.259Z,5.79
2023-03-05T09:16:57.244Z,6.08
2023-03-05T09:19:25.618Z,6.18
2023-03-05T09:21:55.365Z,6.35
2023-03-05T09:24:24.176Z,6.50
2023-03-05T09:26:51.749Z,6.52
2023-03-05T09:29:19.330Z,6.38
2023-03-05T09:31:48.569Z,6.40
2023-03-05T09:34:17.535Z,6.18
2023-03-05T09:36:45.463Z,6.14
2023-03-05T09:39:13.088Z,5.91
2023-03-05T09:41:56.921Z,5.90
2023-03-05T09:44:34.674Z,5.96
2023-03-05T09:47:09.969Z,5.88
2023-03-05T09:49:51.796Z,5.81
2023-03-05T09:52:22.519Z,5.89
2023-03-05T09:54:55.533Z,5.80
2023-03-05T09:57:28.265Z,5.87
2023-03-05T10:00:00.653Z,5.75
2023-03-05T10:02:32.500Z,5.84
2023-03-05T10:05:13.202Z,5.91
2023-03-05T10:07:45.133Z,5.85
2023-03-05T10:10:18.469Z,5.91
2023-03-05T10:12:46.934Z,5.93
2023-03-05T10:15:17.026Z,5.85
2023-03-05T10:17:59.407Z,5.74
2023-03-05T10:20:45.777Z,5.83
2023-03-05T10:23:32.756Z,5.78
2023-03-05T10:26:11.143Z,5.83
2023-03-05T10:28:47.155Z,6.07
2023-03-05T10:31:35.958Z,6.28
2023-03-05T10:34:22.857Z,6.49
2023-03-05T10:37:07.268Z,6.54
2023-03-05T10:39:47.662Z,6.39
2023-03-05T10:42:26.158Z,6.31
2023-03-05T10:44:56.752Z,6.24
2023-03-05T10:47:28.963Z,6.25
2023-03-05T10:49:59.072Z,6.16
2023-03-05T10:52:32.985Z,6.00
2023-03-05T10:55:00.563Z,6.04
2023-03-05T10:57:31.660Z,5.99
2023-03-05T11:00:07.925Z,6.01
2023-03-05T11:02:54.863Z,6.20
2023-03-05T11:05:39.958Z,6.40
2023-03-05T11:08:28.823Z,6.32
2023-03-05T11:11:21.109Z,6.25
2023-03-05T11:13:58.658Z,6.21
2023-03-05T11:16:28.804Z,6.19
2023-03-05T11:19:18.511Z,6.14
2023-03-05T11:21:47.108Z,6.10
2023-03-05T11:24:18.733Z,5.99
2023-03-05T11:26:49.081Z,6.00
2023-03-05T11:29:21.156Z,6.10
2023-03-05T11:31:48.869Z,6.04
2023-03-05T11:34:31.306Z,6.03
2023-03-05T11:37:06.050Z,5.94
2023-03-05T11:39:38.374Z,5.84
2023-03-05T11:42:13.929Z,5.91
2023-03-05T11:44:47.799Z,5.87
2023-03-05T11:47:25.274Z,5.90
2023-03-05T11:50:02.069Z,5.82
2023-03-05T11:52:32.196Z,5.76
2023-03-05T11:55:09.826Z,5.73
2023-03-05T11:57:45.117Z,5.72
2023-03-05T12:00:17.163Z,5.68
2023-03-05T12:02:45.688Z,5.60
2023-03-05T12:05:15.911Z,5.71
2023-03-05T12:07:48.381Z,5.76
2023-03-05T12:10:19.409Z,5.81
2023-03-05T12:12:52.269Z,5.84
2023-03-05T12:15:42.906Z,5.79
2023-03-05T12:18:23.418Z,5.88
2023-03-05T12:20:58.193Z,5.75
2023-03-05T12:23:27.916Z,5.67
2023-03-05T12:25:59.307Z,5.66
2023-03-05T12:28:59.301Z,5.67
2023-03-05T12:31:37.626Z,5.70
2023-03-05T12:34:36.233Z,5.72
2023-03-05T12:37:04.008Z,5.77
2023-03-05T12:39:49.514Z,5.81
2023-03-05T12:42:52.708Z,5.87
2023-03-05T12:45:38.494Z,6.04
2023-03-05T12:48:43.945Z,6.01
2023-03-05T12:51:29.723Z,5.98
2023-03-05T12:53:58.702Z,6.05
2023-03-05T12:56:32.604Z,6.01
2023-03-05T12:59:04.529Z,6.03
2023-03-05T13:01:42.054Z,6.04
2023-03-05T13:04:17.360Z,5.98
2023-03-05T13:06:45.156Z,5.98
2023-03-05T13:09:18.300Z,6.79
2023-03-05T13:11:49.242Z,6.71
2023-03-05T13:14:38.506Z,6.60
2023-03-05T13:17:26.752Z,6.58
2023-03-05T13:19:54.325Z,6.45
2023-03-05T13:22:24.442Z,6.41
2023-03-05T13:25:14.596Z,6.40
2023-03-05T13:27:42.742Z,6.37
2023-03-05T13:30:26.224Z,6.42
2023-03-05T13:32:55.965Z,6.44
2023-03-05T13:35:24.131Z,6.66
2023-03-05T13:37:51.836Z,7.14
2023-03-05T13:40:23.805Z,7.16
2023-03-05T13:42:53.140Z,7.03
2023-03-05T13:45:28.618Z,7.00
2023-03-05T13:47:58.878Z,6.90
2023-03-05T13:50:29.591Z,6.89
2023-03-05T13:52:59.379Z,6.90
2023-03-05T13:55:27.063Z,6.82
2023-03-05T13:57:55.118Z,6.73
2023-03-05T14:00:31.594Z,6.73
2023-03-05T14:03:03.020Z,6.68
2023-03-05T14:05:32.258Z,6.60
2023-03-05T14:07:59.885Z,6.49
2023-03-05T14:10:32.304Z,6.49
2023-03-05T14:13:02.653Z,6.50
2023-03-05T14:15:33.646Z,6.38
2023-03-05T14:18:19.351Z,6.36
2023-03-05T14:21:01.336Z,6.25
2023-03-05T14:23:36.266Z,6.24
2023-03-05T14:26:21.699Z,6.24
2023-03-05T14:28:53.798Z,6.18
2023-03-05T14:31:25.108Z,6.20
2023-03-05T14:33:54.268Z,6.18
2023-03-05T14:36:25.472Z,6.16
2023-03-05T14:38:54.618Z,6.15
2023-03-05T14:41:38.592Z,6.11
2023-03-05T14:44:14.326Z,6.11
2023-03-05T14:46:44.541Z,6.15
2023-03-05T14:49:12.119Z,6.10
2023-03-05T14:51:43.248Z,6.09
2023-03-05T14:54:20.937Z,6.07
2023-03-05T14:56:49.599Z,6.03
2023-03-05T14:59:18.429Z,5.98
2023-03-05T15:01:47.430Z,5.95
2023-03-05T15:04:18.997Z,5.88
2023-03-05T15:06:50.797Z,5.86
2023-03-05T15:09:19.729Z,5.88
2023-03-05T15:11:48.150Z,5.89
2023-03-05T15:14:15.843Z,5.92
2023-03-05T15:16:45.328Z,5.93
2023-03-05T15:19:14.478Z,5.94
2023-03-05T15:21:42.294Z,5.95
2023-03-05T15:24:11.409Z,5.91
2023-03-05T15:26:39.294Z,5.92
2023-03-05T15:29:06.896Z,5.90
2023-03-05T15:31:38.588Z,5.85
2023-03-05T15:34:06.765Z,5.86
2023-03-05T15:36:35.706Z,5.84
2023-03-05T15:39:03.334Z,5.89
2023-03-05T15:41:30.994Z,5.96
2023-03-05T15:43:58.578Z,6.35
2023-03-05T15:46:26.187Z,6.24
2023-03-05T15:48:53.799Z,6.11
2023-03-05T15:51:21.388Z,5.99
2023-03-05T15:53:50.284Z,6.01
2023-03-05T15:56:18.877Z,6.03
2023-03-05T15:58:46.480Z,6.00
2023-03-05T16:01:15.570Z,6.04
2023-03-05T16:03:43.223Z,6.00
2023-03-05T16:06:12.401Z,6.00
2023-03-05T16:08:41.832Z,6.01
2023-03-05T16:11:11.644Z,6.04
2023-03-05T16:13:39.507Z,6.01
2023-03-05T16:16:08.797Z,5.95
2023-03-05T16:18:44.475Z,5.86
2023-03-05T16:21:13.700Z,5.79
2023-03-05T16:23:43.264Z,5.72
2023-03-05T16:26:12.221Z,5.69
2023-03-05T16:28:39.790Z,5.65
2023-03-05T16:31:07.438Z,5.68
2023-03-05T16:33:35.116Z,5.66
2023-03-05T16:36:21.184Z,5.67
2023-03-05T16:38:49.676Z,5.66
2023-03-05T16:41:21.993Z,5.67
2023-03-05T16:43:51.470Z,5.65
2023-03-05T16:46:19.047Z,5.66
2023-03-05T16:48:47.226Z,5.65
2023-03-05T16:51:15.151Z,5.64
2023-03-05T16:53:43.295Z,5.67
2023-03-05T16:56:11.231Z,5.64
2023-03-05T16:58:41.386Z,5.63
2023-03-05T17:01:13.668Z,5.66
2023-03-05T17:03:43.399Z,5.70
2023-03-05T17:06:13.388Z,5.69
2023-03-05T17:08:42.088Z,5.70
2023-03-05T17:11:09.922Z,5.63
2023-03-05T17:13:38.067Z,5.64
2023-03-05T17:16:09.288Z,5.62
2023-03-05T17:18:36.907Z,5.61
2023-03-05T17:21:07.058Z,5.53
2023-03-05T17:23:34.939Z,5.46
2023-03-05T17:26:04.654Z,5.46
2023-03-05T17:28:32.222Z,5.44
2023-03-05T17:31:01.275Z,5.42
2023-03-05T17:33:31.193Z,5.39
2023-03-05T17:35:59.440Z,5.41
2023-03-05T17:38:28.283Z,5.41
2023-03-05T17:40:56.569Z,5.39
2023-03-05T17:43:24.363Z,5.30
2023-03-05T17:45:52.035Z,5.30
2023-03-05T17:48:19.682Z,5.24
2023-03-05T17:50:48.698Z,5.23
2023-03-05T17:53:16.298Z,5.18
2023-03-05T17:55:43.876Z,5.13
2023-03-05T17:58:11.482Z,5.10
2023-03-05T18:00:39.127Z,5.07
2023-03-05T18:07:20.394Z,5.04
2023-03-05T18:09:47.963Z,5.02
2023-03-05T18:12:15.575Z,5.02
2023-03-05T18:14:43.212Z,5.01
2023-03-05T18:17:10.774Z,5.00
2023-03-05T18:19:38.347Z,5.00
2023-03-05T18:22:06.061Z,4.98
2023-03-05T18:24:35.150Z,4.91
2023-03-05T18:27:02.810Z,4.89
2023-03-05T18:29:30.569Z,4.86
2023-03-05T18:31:58.218Z,4.83
2023-03-05T18:34:25.955Z,4.80
2023-03-05T18:36:54.156Z,4.80
2023-03-05T18:39:21.998Z,4.81
2023-03-05T18:41:51.133Z,4.76
2023-03-05T18:48:25.237Z,4.74
2023-03-05T18:50:54.322Z,4.76
2023-03-05T18:53:22.779Z,4.73
2023-03-05T18:55:51.501Z,4.69
2023-03-05T18:58:20.564Z,4.65
2023-03-05T19:00:48.593Z,4.62
2023-03-05T19:03:18.710Z,4.61
2023-03-05T19:05:47.006Z,4.59
2023-03-05T19:08:14.557Z,4.57
2023-03-05T19:10:42.140Z,4.50
2023-03-05T19:13:22.957Z,4.47
2023-03-05T19:15:52.111Z,4.45
2023-03-05T19:18:20.602Z,4.42
2023-03-05T19:20:55.354Z,4.42
2023-03-05T19:23:23.147Z,4.42
2023-03-05T19:25:50.754Z,4.36
2023-03-05T19:28:19.436Z,4.36
2023-03-05T19:30:49.488Z,4.37
2023-03-05T19:33:18.503Z,4.32
2023-03-05T19:35:46.106Z,4.29
2023-03-05T19:38:13.730Z,4.23
2023-03-05T19:40:41.608Z,4.24
2023-03-05T19:43:09.471Z,4.25
2023-03-05T19:45:37.073Z,4.25
2023-03-05T19:48:04.712Z,4.26
2023-03-05T19:50:34.642Z,4.28
2023-03-05T19:53:03.449Z,4.26
2023-03-05T19:55:31.066Z,4.27
2023-03-05T19:57:58.597Z,4.26
2023-03-05T20:00:27.473Z,4.25
2023-03-05T20:02:55.258Z,4.21
2023-03-05T20:05:25.495Z,4.19
2023-03-05T20:07:54.952Z,4.18
2023-03-05T20:10:22.932Z,4.17
2023-03-05T20:12:50.918Z,4.17
2023-03-05T20:15:19.546Z,4.18
2023-03-05T20:17:47.224Z,4.18
2023-03-05T20:20:15.933Z,4.16
2023-03-05T20:22:44.048Z,4.13
2023-03-05T20:25:14.004Z,4.12
2023-03-05T20:27:41.627Z,4.22
2023-03-05T20:30:13.679Z,4.28
2023-03-05T20:32:41.793Z,4.21
2023-03-05T20:35:13.615Z,4.21
2023-03-05T20:37:49.241Z,4.21
2023-03-05T20:40:18.861Z,4.21
2023-03-05T20:42:46.467Z,4.18
2023-03-05T20:45:15.192Z,4.14
2023-03-05T20:47:46.201Z,4.09
2023-03-05T20:50:16.231Z,4.05
2023-03-05T20:52:43.950Z,4.13
2023-03-05T20:55:12.904Z,4.12
2023-03-05T20:57:44.022Z,4.09
2023-03-05T21:00:13.636Z,4.10
2023-03-05T21:02:41.763Z,4.07
2023-03-05T21:05:09.958Z,4.07
2023-03-05T21:07:37.595Z,4.05
2023-03-05T21:10:06.336Z,4.08
2023-03-05T21:12:34.500Z,4.07
2023-03-05T21:15:03.584Z,4.05
2023-03-05T21:17:31.186Z,3.98
2023-03-05T21:19:58.985Z,4.00
2023-03-05T21:22:26.746Z,3.98
2023-03-05T21:25:02.056Z,3.96
2023-03-05T21:27:29.836Z,3.97
2023-03-05T21:29:57.847Z,3.96
2023-03-05T21:32:26.773Z,3.96
2023-03-05T21:34:54.377Z,3.92
2023-03-05T21:37:21.966Z,3.84
2023-03-05T21:39:49.603Z,3.82
2023-03-05T21:42:17.267Z,3.82
2023-03-05T21:44:44.882Z,3.84
2023-03-05T21:47:12.641Z,3.84
2023-03-05T21:49:42.650Z,3.84
2023-03-05T21:52:12.594Z,3.83
2023-03-05T21:54:40.941Z,3.83
2023-03-05T21:57:10.368Z,3.81
2023-03-05T21:59:40.371Z,3.79
2023-03-05T22:02:11.222Z,3.75
2023-03-05T22:04:38.805Z,3.73
2023-03-05T22:07:08.212Z,3.75
2023-03-05T22:09:35.985Z,3.74
2023-03-05T22:12:04.659Z,3.74
2023-03-05T22:14:32.213Z,3.73
2023-03-05T22:17:02.056Z,3.71
2023-03-05T22:19:30.918Z,3.72
2023-03-05T22:21:58.511Z,3.71
2023-03-05T22:24:27.483Z,3.69
2023-03-05T22:26:55.179Z,3.72
2023-03-05T22:29:22.745Z,3.72
2023-03-05T22:31:50.302Z,3.69
2023-03-05T22:34:17.837Z,3.71
2023-03-05T22:36:45.462Z,3.73
2023-03-05T22:39:13.287Z,3.74
2023-03-05T22:41:45.132Z,3.74
2023-03-05T22:44:12.696Z,3.72
2023-03-05T22:46:40.603Z,3.69
2023-03-05T22:49:08.143Z,3.63
2023-03-05T22:51:35.823Z,3.63
2023-03-05T22:54:03.745Z,3.69
2023-03-05T22:56:31.376Z,3.66
2023-03-05T22:59:00.287Z,3.65
2023-03-05T23:01:27.924Z,3.63
2023-03-05T23:04:03.149Z,3.67
2023-03-05T23:06:30.896Z,3.68
2023-03-05T23:08:58.527Z,3.68
2023-03-05T23:11:26.431Z,3.71
2023-03-05T23:13:54.236Z,3.72
2023-03-05T23:16:23.252Z,3.66
2023-03-05T23:18:50.848Z,3.63
2023-03-05T23:21:20.980Z,3.63
2023-03-05T23:23:48.614Z,3.61
2023-03-05T23:26:16.176Z,3.55
2023-03-05T23:28:43.801Z,3.53
2023-03-05T23:31:11.578Z,3.48
2023-03-05T23:33:41.105Z,3.40
2023-03-05T23:36:09.610Z,3.42
2023-03-05T23:38:38.377Z,3.43
2023-03-05T23:41:09.554Z,3.44
2023-03-05T23:43:37.228Z,3.39
2023-03-05T23:46:11.820Z,3.34
2023-03-05T23:48:40.847Z,3.31
2023-03-05T23:51:09.432Z,3.28
2023-03-05T23:53:37.550Z,3.26
2023-03-05T23:56:10.400Z,3.29
2023-03-05T23:58:38.082Z,3.25
